Time;durP1;ratioP1;P1;durP2;ratioP2;P2;SDS_P1;SDS_P2;PMS_P1;PMS_P2;Temp;Humidity;BMP_temperature;BMP_pressure;BME280_temperature;BME280_humidity;BME280_pressure;Samples;Min_cycle;Max_cycle;Signal;HPM_P1;HPM_P2
2022/03/08 00:01:20;;;;;;;4.00;2.50;;;;;;;0.24;81.61;102596.69;5055900;28;20037;-74
2022/03/08 00:03:46;;;;;;;3.83;2.72;;;;;;;0.16;81.89;102583.94;5056560;28;20029;-75
2022/03/08 00:06:12;;;;;;;5.75;2.67;;;;;;;0.25;81.99;102604.47;5062197;28;20404;-75
2022/03/08 00:08:37;;;;;;;4.22;2.67;;;;;;;0.25;82.72;102604.47;5052934;28;20074;-75
2022/03/08 00:11:03;;;;;;;4.40;2.47;;;;;;;0.05;82.61;102575.56;5055879;28;20043;-75
2022/03/08 00:13:29;;;;;;;4.68;2.70;;;;;;;0.20;82.93;102601.16;5056870;28;20031;-75
2022/03/08 00:15:55;;;;;;;3.58;2.28;;;;;;;0.17;83.07;102602.09;5061124;28;20064;-75
2022/03/08 00:18:20;;;;;;;3.78;2.70;;;;;;;0.12;83.43;102588.34;5057375;28;20076;-75
2022/03/08 00:20:45;;;;;;;4.55;2.40;;;;;;;0.16;83.44;102602.97;5040487;28;20020;-75
2022/03/08 00:23:11;;;;;;;4.43;2.22;;;;;;;0.12;83.50;102597.88;5057917;28;20033;-75
2022/03/08 00:25:36;;;;;;;3.60;2.70;;;;;;;-0.04;83.77;102569.72;5065373;28;20472;-75
2022/03/08 00:28:02;;;;;;;3.90;2.17;;;;;;;0.01;83.44;102563.56;5043470;28;20036;-75
2022/03/08 00:30:27;;;;;;;3.42;2.40;;;;;;;0.03;83.66;102574.75;5059505;28;20102;-75
2022/03/08 00:32:54;;;;;;;3.33;1.80;;;;;;;0.02;84.09;102573.03;5056289;28;20033;-75
2022/03/08 00:35:22;;;;;;;4.55;2.35;;;;;;;0.02;84.37;102575.63;5058006;28;20400;-75
2022/03/08 00:37:49;;;;;;;2.63;1.92;;;;;;;-0.01;84.47;102574.81;5065505;28;20039;-75
2022/03/08 00:40:16;;;;;;;5.95;1.98;;;;;;;-0.03;84.48;102580.94;5057168;28;20044;-75
2022/03/08 00:42:42;;;;;;;4.60;2.25;;;;;;;-0.03;84.25;102576.59;5061166;28;20047;-75
2022/03/08 00:45:09;;;;;;;3.63;2.60;;;;;;;-0.04;84.33;102571.47;5069611;28;20025;-75
2022/03/08 00:47:36;;;;;;;4.90;2.67;;;;;;;-0.07;84.59;102572.38;5063726;28;20029;-76
2022/03/08 00:50:03;;;;;;;5.68;2.50;;;;;;;-0.09;84.55;102575.91;5057216;28;20033;-74
2022/03/08 00:52:29;;;;;;;5.10;3.35;;;;;;;-0.23;84.50;102558.94;5066511;28;20036;-74
2022/03/08 00:54:55;;;;;;;5.47;2.55;;;;;;;-0.10;84.79;102577.66;5056269;28;20031;-74
2022/03/08 00:57:20;;;;;;;4.10;2.42;;;;;;;-0.14;84.93;102573.44;5057382;28;20488;-74
2022/03/08 00:59:45;;;;;;;3.53;2.30;;;;;;;-0.19;84.98;102569.28;5070731;28;20081;-74
2022/03/08 01:02:11;;;;;;;6.93;2.78;;;;;;;-0.21;85.34;102559.75;5048913;28;20025;-74
2022/03/08 01:04:36;;;;;;;3.45;2.53;;;;;;;-0.32;85.31;102540.19;5061700;28;20080;-76
2022/03/08 01:07:02;;;;;;;4.75;2.65;;;;;;;-0.31;85.09;102545.31;5070578;28;20481;-75
2022/03/08 01:09:27;;;;;;;3.63;2.33;;;;;;;-0.17;85.30;102576.13;5061689;28;20040;-75
2022/03/08 01:11:53;;;;;;;4.90;2.53;;;;;;;-0.28;85.64;102549.59;5065579;28;20366;-75
2022/03/08 01:14:18;;;;;;;3.45;2.45;;;;;;;-0.18;85.56;102558.81;5064048;28;20028;-75
2022/03/08 01:16:45;;;;;;;4.18;2.75;;;;;;;-0.23;85.77;102560.69;5066496;28;20068;-75
2022/03/08 01:19:10;;;;;;;3.25;2.08;;;;;;;-0.23;86.04;102555.50;5068600;28;20182;-75
2022/03/08 01:21:37;;;;;;;4.55;3.00;;;;;;;-0.24;86.56;102558.97;5070280;28;20408;-75
2022/03/08 01:24:04;;;;;;;4.72;3.15;;;;;;;-0.24;86.55;102554.66;5050818;28;20033;-75
2022/03/08 01:26:29;;;;;;;5.13;3.47;;;;;;;-0.23;86.74;102551.16;5062997;28;20069;-79
2022/03/08 01:28:56;;;;;;;6.05;3.05;;;;;;;-0.21;87.11;102548.53;5062185;28;20033;-76
2022/03/08 01:31:22;;;;;;;4.75;2.22;;;;;;;-0.24;86.94;102548.59;5053802;28;20039;-75
2022/03/08 01:33:49;;;;;;;4.97;2.78;;;;;;;-0.25;87.23;102544.31;5061797;28;20039;-75
2022/03/08 01:36:15;;;;;;;4.65;2.72;;;;;;;-0.23;87.37;102537.34;5059438;28;20037;-75
2022/03/08 01:38:40;;;;;;;5.32;2.67;;;;;;;-0.23;87.37;102540.78;5055059;28;20047;-76
2022/03/08 01:41:06;;;;;;;4.47;2.70;;;;;;;-0.23;87.45;102537.34;5059115;28;20063;-75
2022/03/08 01:43:31;;;;;;;4.55;2.65;;;;;;;-0.23;87.12;102526.97;5052538;28;20532;-75
2022/03/08 01:45:57;;;;;;;3.53;2.90;;;;;;;-0.31;87.27;102523.69;5062459;28;20036;-76
2022/03/08 01:48:22;;;;;;;5.03;3.03;;;;;;;-0.29;87.59;102524.53;5061882;28;20026;-75
2022/03/08 01:50:47;;;;;;;4.22;3.17;;;;;;;-0.29;87.64;102524.53;5051989;28;20124;-75
2022/03/08 01:53:13;;;;;;;5.13;3.15;;;;;;;-0.37;88.02;102516.06;5050746;28;20021;-75
2022/03/08 01:55:39;;;;;;;4.38;3.22;;;;;;;-0.52;87.63;102494.81;5052004;28;20098;-75
2022/03/08 01:58:04;;;;;;;3.17;2.20;;;;;;;-0.37;87.90;102516.06;5034900;28;20457;-75
2022/03/08 02:00:31;;;;;;;5.35;2.70;;;;;;;-0.49;87.96;102505.13;5061486;28;20039;-74
2022/03/08 02:02:58;;;;;;;4.10;2.80;;;;;;;-0.64;88.01;102483.00;5051341;28;20028;-74
2022/03/08 02:05:25;;;;;;;4.57;3.17;;;;;;;-0.53;88.42;102505.22;5046635;28;20401;-74
2022/03/08 02:07:51;;;;;;;4.47;2.92;;;;;;;-0.51;88.52;102512.06;5037112;28;20547;-74
2022/03/08 02:10:17;;;;;;;6.68;3.53;;;;;;;-0.67;89.21;102482.25;5057792;28;20020;-74
2022/03/08 02:12:42;;;;;;;5.78;4.18;;;;;;;-0.58;89.32;102507.94;5059641;28;20104;-76
2022/03/08 02:15:22;;;;;;;5.80;3.75;;;;;;;-0.58;89.83;102505.34;5049951;28;20040;-75
2022/03/08 02:17:48;;;;;;;5.35;3.10;;;;;;;-0.63;90.00;102502.03;5045519;28;20058;-76
2022/03/08 02:20:14;;;;;;;4.35;3.25;;;;;;;-0.58;90.36;102518.31;5050567;28;20493;-76
2022/03/08 02:22:44;;;;;;;8.38;3.45;;;;;;;-0.58;90.40;102502.75;5047773;28;20361;-76
2022/03/08 02:25:10;;;;;;;6.28;3.55;;;;;;;-0.56;90.37;102513.94;5059331;28;20035;-75
2022/03/08 02:27:47;;;;;;;6.03;4.25;;;;;;;-0.57;90.42;102514.81;5051197;28;20435;-75
2022/03/08 02:30:15;;;;;;;6.50;4.18;;;;;;;-0.57;90.37;102522.59;5053134;28;20020;-75
2022/03/08 02:32:41;;;;;;;5.93;3.85;;;;;;;-0.55;90.74;102515.63;5050778;28;20559;-75
2022/03/08 02:35:12;;;;;;;5.13;3.17;;;;;;;-0.61;91.03;102502.81;5051230;28;20028;-75
2022/03/08 02:37:40;;;;;;;6.95;3.75;;;;;;;-0.56;91.24;102515.69;5058415;28;20033;-75
2022/03/08 02:40:12;;;;;;;6.47;4.30;;;;;;;-0.56;91.46;102513.94;5032155;28;20395;-75
2022/03/08 02:42:38;;;;;;;6.25;4.20;;;;;;;-0.57;91.75;102509.63;5050063;28;20037;-75
2022/03/08 02:45:05;;;;;;;6.18;4.22;;;;;;;-0.60;92.00;102498.50;5058186;28;20032;-75
2022/03/08 02:47:31;;;;;;;8.48;4.75;;;;;;;-0.56;92.00;102502.72;5050752;28;20056;-75
2022/03/08 02:49:56;;;;;;;11.57;4.25;;;;;;;-0.78;92.18;102473.84;5055434;28;20052;-74
2022/03/08 02:52:22;;;;;;;6.95;4.07;;;;;;;-0.59;92.33;102502.78;5063792;28;20056;-75
2022/03/08 02:54:47;;;;;;;8.00;4.65;;;;;;;-0.57;92.48;102504.44;5055106;28;20036;-74
2022/03/08 02:57:13;;;;;;;9.23;5.47;;;;;;;-0.70;92.70;102477.09;5057657;28;20029;-75
2022/03/08 02:59:38;;;;;;;7.43;4.47;;;;;;;-0.54;92.33;102499.19;5064179;28;20104;-74
2022/03/08 03:02:04;;;;;;;8.05;5.15;;;;;;;-0.54;92.62;102491.41;5064063;28;20033;-75
2022/03/08 03:04:29;;;;;;;9.18;5.05;;;;;;;-0.57;92.48;102488.88;5055999;28;20154;-75
2022/03/08 03:06:55;;;;;;;7.57;5.15;;;;;;;-0.71;92.57;102472.81;5051359;28;20481;-75
2022/03/08 03:09:20;;;;;;;10.68;5.25;;;;;;;-0.64;92.36;102487.34;5054890;28;20471;-75
2022/03/08 03:11:46;;;;;;;11.82;5.70;;;;;;;-0.78;92.67;102463.47;5062153;28;20025;-75
2022/03/08 03:14:11;;;;;;;5.72;4.03;;;;;;;-0.65;92.87;102485.66;5062573;28;20047;-75
2022/03/08 03:16:37;;;;;;;8.98;5.50;;;;;;;-0.67;93.30;102488.28;5051185;28;20071;-75
2022/03/08 03:19:03;;;;;;;9.05;5.38;;;;;;;-0.68;93.10;102485.72;5049145;28;20059;-75
2022/03/08 03:21:28;;;;;;;11.52;5.82;;;;;;;-0.70;93.03;102492.66;5050526;28;20063;-75
2022/03/08 03:23:53;;;;;;;9.60;5.60;;;;;;;-0.74;93.46;102496.22;5052961;28;20021;-75
2022/03/08 03:26:19;;;;;;;10.18;5.90;;;;;;;-0.76;93.46;102491.09;5051231;28;20029;-75
2022/03/08 03:28:44;;;;;;;7.72;5.25;;;;;;;-0.78;93.07;102486.81;5053304;28;20090;-74
2022/03/08 03:31:10;;;;;;;8.90;5.05;;;;;;;-0.79;92.89;102482.53;5055994;28;20044;-76
2022/03/08 03:33:35;;;;;;;9.75;5.70;;;;;;;-0.80;93.06;102489.44;5041449;28;20448;-75
2022/03/08 03:36:00;;;;;;;11.18;5.80;;;;;;;-0.89;92.77;102482.75;5052248;28;20396;-75
2022/03/08 03:38:26;;;;;;;8.68;6.00;;;;;;;-0.92;92.92;102469.84;5033399;28;20016;-76
2022/03/08 03:40:51;;;;;;;7.72;5.68;;;;;;;-0.85;92.93;102475.72;5036068;28;20193;-75
2022/03/08 03:43:17;;;;;;;8.73;5.65;;;;;;;-0.75;92.62;102489.34;5057942;28;20032;-75
2022/03/08 03:45:42;;;;;;;9.77;6.40;;;;;;;-0.76;92.78;102482.44;5052383;28;20461;-75
2022/03/08 03:48:07;;;;;;;10.05;6.82;;;;;;;-0.68;92.42;102490.88;5032887;28;20033;-75
2022/03/08 03:50:33;;;;;;;11.57;6.22;;;;;;;-0.81;92.02;102463.56;5039486;28;20476;-75
2022/03/08 03:52:58;;;;;;;9.30;6.55;;;;;;;-0.64;91.45;102484.75;5036330;28;20124;-75
2022/03/08 03:55:24;;;;;;;8.38;5.88;;;;;;;-0.64;91.07;102485.59;5059607;28;20021;-75
2022/03/08 03:57:49;;;;;;;11.23;6.07;;;;;;;-0.65;90.77;102485.66;5052641;28;20021;-75
2022/03/08 04:00:16;;;;;;;14.00;6.47;;;;;;;-0.76;90.22;102475.53;5056064;28;20403;-75
2022/03/08 04:02:42;;;;;;;10.45;6.20;;;;;;;-0.81;90.22;102468.75;5051503;28;20020;-75
2022/03/08 04:05:08;;;;;;;16.52;6.45;;;;;;;-0.79;90.22;102474.75;5035092;28;20194;-75
2022/03/08 04:07:35;;;;;;;8.57;5.88;;;;;;;-0.80;90.36;102475.66;5021611;28;20050;-76
2022/03/08 04:10:01;;;;;;;9.68;6.22;;;;;;;-0.79;90.19;102490.31;5063314;28;20042;-75
2022/03/08 04:12:26;;;;;;;9.50;6.53;;;;;;;-0.86;89.98;102482.66;5056292;28;20029;-76
2022/03/08 04:14:51;;;;;;;8.40;6.22;;;;;;;-0.91;90.80;102483.69;5060193;28;20473;-76
2022/03/08 04:17:17;;;;;;;10.35;7.15;;;;;;;-0.94;90.76;102479.38;5057434;28;20122;-76
2022/03/08 04:19:42;;;;;;;9.52;6.20;;;;;;;-1.12;90.93;102453.91;5055715;28;20044;-75
2022/03/08 04:22:09;;;;;;;8.60;5.47;;;;;;;-0.97;90.64;102471.69;5038019;28;20028;-76
2022/03/08 04:24:34;;;;;;;12.02;7.35;;;;;;;-1.09;90.68;102449.53;5053469;28;20029;-75
2022/03/08 04:26:59;;;;;;;10.93;6.18;;;;;;;-1.29;90.72;102426.63;5051256;28;20427;-75
2022/03/08 04:29:25;;;;;;;12.25;7.40;;;;;;;-1.11;91.08;102473.75;5051105;28;20469;-75
2022/03/08 04:31:50;;;;;;;14.10;5.60;;;;;;;-1.20;91.58;102468.78;5057814;28;20025;-75
2022/03/08 04:34:16;;;;;;;13.90;5.78;;;;;;;-1.40;91.30;102448.50;5059400;28;20482;-75
2022/03/08 04:36:41;;;;;;;10.18;6.78;;;;;;;-1.28;92.01;102484.50;5034589;28;20130;-76
2022/03/08 04:39:07;;;;;;;10.38;6.95;;;;;;;-1.32;92.34;102478.53;5058725;28;20051;-75
2022/03/08 04:41:32;;;;;;;9.43;6.90;;;;;;;-1.36;92.22;102479.47;5051893;28;20030;-75
2022/03/08 04:43:58;;;;;;;12.32;6.90;;;;;;;-1.35;92.58;102488.97;5051751;28;20462;-75
2022/03/08 04:46:24;;;;;;;11.07;6.20;;;;;;;-1.45;92.65;102472.75;5040152;28;20029;-75
2022/03/08 04:48:49;;;;;;;9.73;6.30;;;;;;;-1.39;92.89;102492.50;5061306;28;20544;-75
2022/03/08 04:51:15;;;;;;;11.60;6.70;;;;;;;-1.53;92.72;102471.22;5043535;28;20067;-75
2022/03/08 04:53:40;;;;;;;10.75;7.25;;;;;;;-1.52;93.07;102475.53;5055833;28;20112;-75
2022/03/08 04:56:06;;;;;;;10.55;6.18;;;;;;;-1.62;92.87;102463.66;5059058;28;20024;-76
2022/03/08 04:58:31;;;;;;;11.20;6.65;;;;;;;-1.48;92.94;102482.31;5055631;28;20033;-75
2022/03/08 05:00:56;;;;;;;18.20;6.72;;;;;;;-1.50;93.09;102484.13;5044925;28;20447;-75
2022/03/08 05:03:22;;;;;;;11.77;7.80;;;;;;;-1.51;93.62;102482.38;5058380;28;20119;-75
2022/03/08 05:05:47;;;;;;;8.00;5.68;;;;;;;-1.53;93.36;102486.75;5059517;28;20113;-75
2022/03/08 05:08:14;;;;;;;9.15;5.80;;;;;;;-1.58;93.28;102475.66;5066272;28;20396;-75
2022/03/08 05:10:39;;;;;;;9.98;6.53;;;;;;;-1.52;93.45;102472.94;5038814;28;20021;-75
2022/03/08 05:13:05;;;;;;;12.27;6.35;;;;;;;-1.53;93.66;102479.81;5040120;28;20079;-76
2022/03/08 05:15:31;;;;;;;8.20;6.43;;;;;;;-1.56;93.35;102471.28;5055398;28;20029;-76
2022/03/08 05:17:56;;;;;;;8.27;6.18;;;;;;;-1.62;93.31;102474.00;5055750;28;20040;-75
2022/03/08 05:20:21;;;;;;;11.38;7.90;;;;;;;-1.58;93.19;102471.31;5046072;28;20048;-75
2022/03/08 05:22:47;;;;;;;11.75;6.63;;;;;;;-1.61;93.73;102475.69;5055194;28;20500;-76
2022/03/08 05:25:12;;;;;;;13.32;8.30;;;;;;;-1.61;93.56;102470.50;5062794;28;20029;-75
2022/03/08 05:27:39;;;;;;;13.75;8.40;;;;;;;-1.62;93.30;102467.09;5057005;28;20033;-75
2022/03/08 05:30:06;;;;;;;10.27;7.35;;;;;;;-1.63;93.24;102480.94;5062619;28;20392;-75
2022/03/08 05:32:31;;;;;;;11.10;7.45;;;;;;;-1.66;94.00;102473.19;5063761;28;20404;-75
2022/03/08 05:34:57;;;;;;;12.88;7.72;;;;;;;-1.66;93.80;102471.44;5055818;28;20032;-75
2022/03/08 05:37:22;;;;;;;9.73;7.65;;;;;;;-1.72;93.95;102450.91;5059214;28;20408;-75
2022/03/08 05:39:47;;;;;;;15.05;7.55;;;;;;;-1.62;93.94;102466.22;5054499;28;20029;-75
2022/03/08 05:42:13;;;;;;;13.23;7.75;;;;;;;-1.63;94.01;102462.81;5058979;28;20392;-75
2022/03/08 05:44:39;;;;;;;12.73;7.97;;;;;;;-1.69;93.67;102455.16;5056594;28;20092;-74
2022/03/08 05:47:06;;;;;;;15.43;7.57;;;;;;;-1.62;93.87;102467.09;5056539;28;20071;-74
2022/03/08 05:49:31;;;;;;;14.65;8.30;;;;;;;-1.75;93.92;102445.75;5052712;28;20025;-74
2022/03/08 05:51:57;;;;;;;12.85;7.25;;;;;;;-1.59;93.94;102469.63;5052338;28;20059;-74
2022/03/08 05:54:22;;;;;;;12.27;8.10;;;;;;;-1.60;94.10;102467.06;5053310;28;20024;-74
2022/03/08 05:56:48;;;;;;;15.82;8.90;;;;;;;-1.60;94.38;102462.72;5055944;28;20550;-75
2022/03/08 05:59:13;;;;;;;9.77;6.95;;;;;;;-1.49;93.61;102472.84;5053462;28;20033;-75
2022/03/08 06:01:39;;;;;;;16.08;8.05;;;;;;;-1.56;93.91;102463.53;5056126;28;20029;-75
2022/03/08 06:04:05;;;;;;;13.70;8.13;;;;;;;-1.45;93.34;102472.75;5051919;28;20058;-75
2022/03/08 06:06:31;;;;;;;13.00;7.70;;;;;;;-1.48;93.22;102467.66;5059227;28;20071;-74
2022/03/08 06:08:56;;;;;;;13.05;7.65;;;;;;;-1.36;93.13;102476.88;5051458;28;20029;-74
2022/03/08 06:11:22;;;;;;;13.93;8.65;;;;;;;-1.36;93.26;102476.03;5060273;28;20504;-75
2022/03/08 06:13:47;;;;;;;14.23;7.47;;;;;;;-1.42;93.00;102466.66;5057665;28;20025;-75
2022/03/08 06:16:13;;;;;;;17.15;9.48;;;;;;;-1.47;92.75;102455.56;5054792;28;20025;-75
2022/03/08 06:18:39;;;;;;;15.27;9.45;;;;;;;-1.26;92.54;102478.41;5048864;28;20512;-75
2022/03/08 06:21:04;;;;;;;14.32;8.68;;;;;;;-1.17;92.28;102482.53;5045690;28;20029;-75
2022/03/08 06:23:30;;;;;;;14.02;8.02;;;;;;;-1.26;92.42;102467.19;5047382;28;20028;-75
2022/03/08 06:25:55;;;;;;;15.07;8.55;;;;;;;-1.16;91.83;102473.00;5020615;28;20060;-75
2022/03/08 06:28:21;;;;;;;14.23;8.68;;;;;;;-1.11;92.01;102482.38;5045206;28;20972;-75
2022/03/08 06:30:46;;;;;;;12.05;7.72;;;;;;;-1.18;91.52;102467.00;5046095;28;20048;-77
2022/03/08 06:33:12;;;;;;;11.60;6.35;;;;;;;-1.00;91.64;102489.03;5048581;28;20035;-77
2022/03/08 06:35:38;;;;;;;16.23;7.57;;;;;;;-0.95;91.49;102488.06;5050635;28;20051;-77
2022/03/08 06:38:03;;;;;;;15.10;8.73;;;;;;;-0.99;91.22;102470.88;5047807;28;20059;-77
2022/03/08 06:40:29;;;;;;;12.63;8.10;;;;;;;-0.82;90.81;102486.03;5051195;28;20489;-77
2022/03/08 06:42:55;;;;;;;12.10;7.05;;;;;;;-0.72;90.41;102489.25;5050389;28;20453;-77
2022/03/08 06:45:20;;;;;;;15.63;8.65;;;;;;;-0.69;90.16;102484.00;5051566;28;20478;-78
2022/03/08 06:47:46;;;;;;;10.57;7.10;;;;;;;-0.64;89.95;102477.81;5031708;28;20127;-78
2022/03/08 06:50:11;;;;;;;16.67;7.50;;;;;;;-0.57;89.49;102488.88;5047331;28;20043;-77
2022/03/08 06:52:37;;;;;;;15.95;9.27;;;;;;;-0.57;89.40;102480.25;5043955;28;20350;-78
2022/03/08 06:55:03;;;;;;;17.00;9.07;;;;;;;-0.64;89.09;102456.22;5035810;28;20503;-77
2022/03/08 06:57:29;;;;;;;12.00;7.80;;;;;;;-0.48;88.97;102486.09;5042295;28;20040;-79
2022/03/08 06:59:55;;;;;;;14.75;8.48;;;;;;;-0.45;88.38;102496.38;5056640;28;20024;-76
2022/03/08 07:02:21;;;;;;;18.30;9.10;;;;;;;-0.52;88.45;102487.03;5058340;28;20142;-78
2022/03/08 07:04:46;;;;;;;11.85;7.28;;;;;;;-0.63;88.68;102460.53;5057087;28;20102;-76
2022/03/08 07:07:11;;;;;;;13.27;7.57;;;;;;;-0.51;88.65;102483.53;5058758;28;20120;-76
2022/03/08 07:09:37;;;;;;;11.73;7.47;;;;;;;-0.42;88.42;102488.50;5024389;28;20664;-76
2022/03/08 07:12:02;;;;;;;12.93;7.70;;;;;;;-0.37;88.71;102484.94;5058330;28;20037;-78
2022/03/08 07:14:28;;;;;;;13.93;7.53;;;;;;;-0.44;88.31;102474.72;5040329;28;20471;-76
2022/03/08 07:16:54;;;;;;;16.20;7.38;;;;;;;-0.37;88.14;102479.75;5054432;28;20067;-76
2022/03/08 07:19:19;;;;;;;12.80;6.22;;;;;;;-0.28;87.94;102484.72;5025338;28;20527;-77
2022/03/08 07:21:45;;;;;;;14.13;8.40;;;;;;;-0.07;87.85;102498.84;5053698;28;20052;-76
2022/03/08 07:24:12;;;;;;;11.95;6.97;;;;;;;-0.05;88.13;102504.88;5058963;28;20029;-76
2022/03/08 07:26:37;;;;;;;15.25;7.57;;;;;;;0.07;87.55;102512.34;5056789;28;20109;-78
2022/03/08 07:29:03;;;;;;;12.02;5.78;;;;;;;0.08;87.29;102498.44;5055648;28;20025;-76
2022/03/08 07:31:29;;;;;;;13.38;8.88;;;;;;;0.23;87.04;102506.72;5024360;28;20381;-75
2022/03/08 07:33:55;;;;;;;15.73;9.52;;;;;;;0.24;86.55;102492.81;5051051;28;20043;-75
2022/03/08 07:36:21;;;;;;;11.88;6.60;;;;;;;0.40;86.15;102505.34;5059516;28;20028;-75
2022/03/08 07:38:48;;;;;;;13.43;8.43;;;;;;;0.50;85.70;102502.47;5058008;28;20036;-75
2022/03/08 07:41:13;;;;;;;9.77;6.20;;;;;;;0.60;85.12;102509.13;5057864;28;20385;-76
2022/03/08 07:43:39;;;;;;;10.63;6.78;;;;;;;0.63;84.94;102500.38;5053795;28;20035;-75
2022/03/08 07:46:06;;;;;;;13.20;7.55;;;;;;;0.79;84.20;102507.69;5038050;28;20111;-75
2022/03/08 07:48:32;;;;;;;8.38;6.00;;;;;;;0.90;83.93;102514.31;5038363;28;20032;-75
2022/03/08 07:50:57;;;;;;;11.95;7.70;;;;;;;0.93;83.44;102501.22;5054635;28;20147;-75
2022/03/08 07:53:23;;;;;;;14.25;7.13;;;;;;;0.99;83.09;102491.47;5056184;28;20520;-75
2022/03/08 07:55:48;;;;;;;12.10;7.53;;;;;;;1.28;82.35;102500.09;5053482;28;20473;-75
2022/03/08 07:58:14;;;;;;;9.85;6.28;;;;;;;1.69;82.38;102507.44;5056988;28;20020;-75
2022/03/08 08:00:43;;;;;;;11.02;6.60;;;;;;;2.01;80.46;102507.19;5056651;28;20127;-75
2022/03/08 08:03:08;;;;;;;9.77;6.63;;;;;;;2.24;79.41;102502.91;5054392;28;20456;-75
2022/03/08 08:05:35;;;;;;;10.27;6.70;;;;;;;2.67;78.05;102504.78;5055624;28;20078;-75
2022/03/08 08:08:02;;;;;;;10.18;6.25;;;;;;;3.26;75.94;102513.78;5055665;28;20052;-76
2022/03/08 08:10:27;;;;;;;11.80;6.43;;;;;;;3.61;74.85;102482.78;5057706;28;20021;-76
2022/03/08 08:12:53;;;;;;;13.52;7.88;;;;;;;4.35;72.07;102515.31;5051877;28;20035;-76
2022/03/08 08:15:18;;;;;;;11.10;6.75;;;;;;;4.91;71.00;102511.88;5054512;28;20028;-76
2022/03/08 08:17:44;;;;;;;8.80;6.55;;;;;;;5.36;67.77;102516.66;5037312;28;20492;-76
2022/03/08 08:20:10;;;;;;;10.50;6.13;;;;;;;5.64;66.73;102511.81;5052856;28;20060;-76
2022/03/08 08:22:36;;;;;;;9.52;6.65;;;;;;;5.69;65.63;102496.72;5056032;28;20035;-76
2022/03/08 08:25:01;;;;;;;12.13;6.68;;;;;;;6.08;64.33;102501.72;5056325;28;20107;-76
2022/03/08 08:27:27;;;;;;;8.40;6.20;;;;;;;6.57;64.30;102498.25;5054470;28;20178;-76
2022/03/08 08:29:52;;;;;;;11.60;6.10;;;;;;;7.19;61.82;102517.53;5053697;28;20032;-76
2022/03/08 08:32:17;;;;;;;8.88;6.57;;;;;;;7.39;61.09;102512.94;5054559;28;20044;-76
2022/03/08 08:34:43;;;;;;;8.95;6.28;;;;;;;7.61;59.80;102513.38;5056435;28;20624;-76
2022/03/08 08:37:09;;;;;;;11.73;5.85;;;;;;;7.15;59.74;102512.56;5057277;28;20557;-76
2022/03/08 08:39:35;;;;;;;9.45;5.90;;;;;;;7.46;59.31;102518.69;5058490;28;20025;-76
2022/03/08 08:42:00;;;;;;;10.80;6.35;;;;;;;7.38;58.04;102511.22;5060496;28;20040;-76
2022/03/08 08:44:26;;;;;;;10.52;6.68;;;;;;;7.36;58.66;102519.22;5058754;28;20408;-76
2022/03/08 08:46:53;;;;;;;10.18;6.53;;;;;;;7.63;58.98;102516.75;5059099;28;20127;-76
2022/03/08 08:49:18;;;;;;;9.07;6.18;;;;;;;7.79;57.46;102524.56;5058344;28;20123;-76
2022/03/08 08:51:44;;;;;;;10.68;6.60;;;;;;;7.52;57.46;102510.44;5059800;28;20108;-76
2022/03/08 08:54:09;;;;;;;8.10;5.88;;;;;;;7.41;58.29;102506.66;5040451;28;20028;-76
2022/03/08 08:56:35;;;;;;;10.20;6.30;;;;;;;7.91;57.78;102503.78;5057967;28;20028;-76
2022/03/08 08:59:05;;;;;;;8.55;6.13;;;;;;;7.56;57.75;102509.34;5058171;28;20028;-76
2022/03/08 09:01:30;;;;;;;9.65;6.63;;;;;;;6.76;59.12;102485.81;5058349;28;20028;-76
2022/03/08 09:03:56;;;;;;;8.02;5.63;;;;;;;6.84;59.97;102509.03;5039078;28;20054;-76
2022/03/08 09:06:21;;;;;;;7.28;5.43;;;;;;;6.62;60.13;102513.75;5057629;28;20040;-76
2022/03/08 09:08:47;;;;;;;9.55;6.45;;;;;;;7.00;59.47;102486.22;5058113;28;20037;-76
2022/03/08 09:11:12;;;;;;;8.23;6.25;;;;;;;8.00;58.12;102497.97;5041973;28;20032;-76
2022/03/08 09:13:39;;;;;;;7.70;6.30;;;;;;;8.69;55.92;102499.00;5057990;28;20045;-76
2022/03/08 09:16:05;;;;;;;10.40;6.35;;;;;;;8.97;55.13;102499.84;5057570;28;20073;-76
2022/03/08 09:18:31;;;;;;;10.25;5.97;;;;;;;9.29;54.34;102476.66;5060496;28;20503;-76
2022/03/08 09:20:56;;;;;;;9.25;6.15;;;;;;;9.09;53.70;102493.78;5057831;28;20036;-76
2022/03/08 09:23:22;;;;;;;7.45;5.82;;;;;;;9.35;53.42;102473.63;5061708;28;20121;-76
2022/03/08 09:25:48;;;;;;;8.77;6.07;;;;;;;10.90;50.71;102491.03;5055804;28;20710;-76
2022/03/08 09:28:13;;;;;;;8.05;5.88;;;;;;;10.25;50.82;102479.75;5059746;28;20094;-77
2022/03/08 09:30:39;;;;;;;7.35;6.05;;;;;;;9.70;51.19;102478.31;5056737;28;20283;-77
2022/03/08 09:33:05;;;;;;;9.15;6.50;;;;;;;10.14;51.75;102461.22;5060809;28;20094;-76
2022/03/08 09:35:31;;;;;;;8.77;6.35;;;;;;;11.66;50.34;102459.84;5058656;28;20369;-76
2022/03/08 09:37:57;;;;;;;7.50;6.13;;;;;;;12.49;49.03;102469.25;5058565;28;20025;-77
2022/03/08 09:40:23;;;;;;;7.85;6.00;;;;;;;12.45;46.09;102459.88;5058758;28;20027;-77
2022/03/08 09:42:49;;;;;;;7.18;5.93;;;;;;;12.21;46.41;102441.50;5039624;28;20024;-77
2022/03/08 09:45:15;;;;;;;11.00;6.38;;;;;;;12.20;46.60;102455.72;5056482;28;20013;-76
2022/03/08 09:47:41;;;;;;;9.43;5.80;;;;;;;12.20;46.37;102456.53;5059575;28;20433;-76
2022/03/08 09:50:09;;;;;;;7.95;5.78;;;;;;;12.19;45.90;102460.13;5057517;28;20106;-76
2022/03/08 09:52:38;;;;;;;7.90;5.57;;;;;;;11.61;46.61;102454.06;5056751;28;20032;-76
2022/03/08 09:55:05;;;;;;;6.25;5.43;;;;;;;11.06;45.66;102457.28;5057302;28;20216;-76
2022/03/08 09:57:30;;;;;;;8.07;5.20;;;;;;;11.32;45.73;102457.97;5058585;28;20551;-76
2022/03/08 09:59:56;;;;;;;8.30;6.03;;;;;;;11.36;45.99;102461.19;5058864;28;20024;-76
2022/03/08 10:02:22;;;;;;;8.15;5.05;;;;;;;11.80;46.34;102443.75;5056009;28;20036;-76
2022/03/08 10:05:02;;;;;;;9.05;5.78;;;;;;;11.79;45.70;102455.28;5059186;28;20029;-76
2022/03/08 10:07:27;;;;;;;7.65;5.55;;;;;;;11.74;44.82;102455.66;5056370;28;20024;-76
2022/03/08 10:09:57;;;;;;;6.40;5.15;;;;;;;11.76;45.63;102444.97;5040590;28;20389;-76
2022/03/08 10:12:23;;;;;;;9.02;5.60;;;;;;;12.27;45.30;102436.56;5056481;28;20029;-76
2022/03/08 10:14:48;;;;;;;7.22;5.28;;;;;;;13.47;43.79;102449.78;5059982;28;20029;-76
2022/03/08 10:17:39;;;;;;;8.93;5.80;;;;;;;11.62;45.21;102438.06;5055433;28;20028;-76
2022/03/08 10:20:08;;;;;;;13.00;5.75;;;;;;;11.56;45.74;102435.06;5056785;28;20048;-76
2022/03/08 10:22:37;;;;;;;11.57;5.95;;;;;;;11.46;45.41;102416.44;5056078;28;20017;-76
2022/03/08 10:25:11;;;;;;;8.60;5.88;;;;;;;11.91;45.16;102435.88;5056563;28;20086;-76
2022/03/08 10:27:36;;;;;;;8.50;5.03;;;;;;;11.15;45.33;102425.81;5040881;28;20123;-76
2022/03/08 10:30:04;;;;;;;7.55;5.10;;;;;;;10.89;46.13;102399.56;5057690;28;20059;-76
2022/03/08 10:32:36;;;;;;;6.80;5.15;;;;;;;11.82;45.91;102427.75;5053699;28;20497;-76
2022/03/08 10:35:03;;;;;;;9.10;5.10;;;;;;;12.25;44.66;102421.75;5057186;28;20208;-76
2022/03/08 10:37:35;;;;;;;7.97;4.85;;;;;;;13.17;42.24;102412.44;5056252;28;20031;-76
2022/03/08 10:40:08;;;;;;;6.78;4.65;;;;;;;13.44;42.40;102413.75;5057190;28;20051;-76
2022/03/08 10:42:39;;;;;;;5.20;4.47;;;;;;;13.73;40.98;102397.13;5056561;28;20328;-76
2022/03/08 10:45:13;;;;;;;7.57;4.93;;;;;;;13.16;41.71;102413.38;5057030;28;20032;-76
2022/03/08 10:47:50;;;;;;;6.38;4.03;;;;;;;12.41;41.90;102437.25;5048753;28;20400;-76
2022/03/08 10:50:18;;;;;;;5.60;4.13;;;;;;;11.74;43.61;102413.31;5053732;28;20024;-76
2022/03/08 10:52:46;;;;;;;6.72;4.75;;;;;;;12.63;42.98;102404.56;5051021;28;20027;-76
2022/03/08 10:55:17;;;;;;;10.35;4.43;;;;;;;12.66;41.58;102410.47;5049368;28;20423;-76
2022/03/08 10:57:53;;;;;;;4.15;3.63;;;;;;;12.61;40.80;102417.09;5052883;28;20384;-76
2022/03/08 11:00:20;;;;;;;40.05;7.32;;;;;;;11.55;44.03;102401.66;5054299;28;20017;-76
2022/03/08 11:02:55;;;;;;;5.78;4.07;;;;;;;12.37;41.15;102409.34;5050468;28;20025;-76
2022/03/08 11:05:22;;;;;;;5.25;4.30;;;;;;;12.30;41.88;102409.00;5054879;28;20028;-77
2022/03/08 11:07:48;;;;;;;6.60;4.20;;;;;;;12.10;41.59;102421.16;5056642;28;20033;-76
2022/03/08 11:10:15;;;;;;;5.10;4.38;;;;;;;12.35;42.35;102389.13;5054454;28;20544;-75
2022/03/08 11:12:40;;;;;;;6.50;4.40;;;;;;;12.61;41.22;102395.91;5048997;28;20489;-76
2022/03/08 11:15:08;;;;;;;5.85;3.95;;;;;;;12.98;40.73;102393.75;5054887;28;20082;-76
2022/03/08 11:17:36;;;;;;;5.85;4.22;;;;;;;12.19;42.24;102390.47;5053172;28;20037;-77
2022/03/08 11:20:04;;;;;;;5.50;3.90;;;;;;;11.76;42.70;102370.91;5054286;28;20126;-76